weather.gov     
National Weather Service

Terminal Aerodrome Forecast
NWS Homepage
This page is being discontinued on March 12, 2014.
The same data is available at this site. Please update your bookmarks.
Thank you, and we apologize for the inconvenience.
Please send an email to SR-SRH.Webmaster@noaa.gov with any concerns.


Current Version
Previous Version:    01  02  03  04  05  06  07  08  09  10  11  12  13  14  15  16  17  18  19  20  21  22  23  24  25  26  27  28  29  30  
   31  32  33  34  35  
[Printable]
956
FTUS46 KPQR 251739
TAFTTD
TAF
KTTD 251739Z 2518/2618 10015G25KT P6SM SCT050 BKN070
     FM252200 19018G40KT P6SM -SHRA SCT025 OVC050
      TEMPO 2522/2602 4SM SHRA BKN025 OVC040
     FM260200 21017G28KT P6SM -SHRA BKN025 OVC050
     FM260500 22011G22KT P6SM -SHRA BKN030 BKN050
     FM261000 22007KT P6SM -SHRA BKN030 OVC050=


956
FTUS46 KPQR 251739
TAFTTD
TAF
KTTD 251739Z 2518/2618 10015G25KT P6SM SCT050 BKN070
     FM252200 19018G40KT P6SM -SHRA SCT025 OVC050
      TEMPO 2522/2602 4SM SHRA BKN025 OVC040
     FM260200 21017G28KT P6SM -SHRA BKN025 OVC050
     FM260500 22011G22KT P6SM -SHRA BKN030 BKN050
     FM261000 22007KT P6SM -SHRA BKN030 OVC050=




U.S. Dept. of Commerce
NOAA National Weather Service
1325 East West Highway
Silver Spring, MD 20910
E-mail: w-nws.webmaster@noaa.gov
Page last modified: May 16, 2007
NATIONAL WEATHER SERVICE: for Safety, for Work, for Fun - FOR LIFE